Latest Coastal Weather Observations for Strahan

IDT60701

Issued at 9:32 am EST Saturday 30 April 2016 (issued every 10 minutes, with the page automatically refreshed every 10 minutes)

About coastal observations | Map of coastal stations | Coastal observations for TAS | Marine services | Other Formats
Station Details ID: 097072 Name: STRAHAN AERODROME Lat: -42.16 Lon: 145.29 Height: 21.0 m
Data from the previous 72 hours. | See also: Recent months at Strahan
Date/Time
EST
Temp

°C
Wind Pressure Rain
since 9am
mm
Weather Cloud Vis
km
Sea
Height
m
Swell
Dir
 
Speed
knots
Gust
knots
hPa Trend Height
m
Period
s
Dir
30/09:30am 17.6 N 12 19 1010.2 - 0.0 - - 10 - - - -
30/09:00am 16.9 N 11 18 1010.3 - 14.0 - Cloudy 10 - - - -
30/08:30am 15.8 N 9 14 1010.3 - 14.0 - Partly cloudy 10 - - - -
30/08:00am 15.0 NNE 8 12 1010.1 - 14.0 - Partly cloudy 10 - - - -
30/07:30am 14.4 N 9 13 1010.0 - 14.0 - Cloudy 10 - - - -
30/07:00am 13.8 NNE 9 14 1009.7 - 14.0 - Partly cloudy 10 - - - -
30/06:30am 13.1 NNE 8 12 1009.7 - 14.0 - - 10 - - - -
30/06:00am 12.8 N 7 11 1009.8 - 14.0 - Partly cloudy 10 - - - -
30/05:30am 12.8 N 7 10 1010.0 - 14.0 - Partly cloudy 10 - - - -
30/05:00am 12.8 NNE 8 10 1009.9 - 14.0 - Partly cloudy 10 - - - -
30/04:30am 13.1 NNE 7 10 1010.0 - 14.0 - Partly cloudy 10 - - - -
30/04:00am 13.0 NNE 7 10 1009.9 - 14.0 - - 10 - - - -
30/03:30am 13.7 N 8 12 1010.0 - 14.0 - Partly cloudy 10 - - - -
30/03:00am 13.7 N 8 13 1010.1 - 14.0 Recent precip. Mostly cloudy 10 - - - -
30/02:30am 13.3 N 7 11 1010.3 - 14.0 - Partly cloudy 10 - - - -
30/02:00am 13.2 N 7 10 1010.4 - 13.8 - - 10 - - - -
30/01:30am 13.7 N 7 11 1010.4 - 13.8 - Partly cloudy 10 - - - -
30/01:00am 13.7 N 7 11 1010.5 - 13.8 - - 10 - - - -
30/12:30am 13.8 N 7 10 1010.3 - 13.8 - Partly cloudy 10 - - - -
30/12:00am 14.2 N 10 14 1010.2 - 13.8 - Cloudy 10 - - - -
 
Date/Time
EST
Temp

°C
Wind Pressure Rain
since 9am
mm
Weather Cloud Vis
km
Sea
Height
m
Swell
Dir
 
Speed
knots
Gust
knots
hPa Trend Height
m
Period
s
Dir
29/11:30pm 13.9 N 7 11 1010.2 - 13.8 - Partly cloudy 10 - - - -
29/11:00pm 13.5 N 8 11 1010.6 - 13.8 - - 10 - - - -
29/10:30pm 13.7 N 6 11 1010.8 - 13.8 - Partly cloudy 10 - - - -
29/10:00pm 14.0 N 10 14 1010.9 - 13.8 - Partly cloudy 10 - - - -
29/09:30pm 14.4 N 11 14 1010.8 - 13.8 - Partly cloudy 9 - - - -
29/09:00pm 14.9 NNW 13 19 1010.6 - 13.8 - Cloudy 10 - - - -
29/08:30pm 14.8 N 13 17 1010.2 - 13.8 - Partly cloudy 10 - - - -
29/08:00pm 14.7 N 12 16 1009.8 - 13.8 - Partly cloudy 10 - - - -
29/07:57pm 14.8 N 12 18 1009.8 - 13.8 - Partly cloudy 10 - - - -
29/07:36pm 14.9 N 11 15 1009.8 - 13.0 - Partly cloudy 5 - - - -
29/07:30pm 14.9 N 11 15 1009.8 - 12.6 - Partly cloudy 10 - - - -
29/07:00pm 14.9 N 13 18 1009.6 - 12.6 - Partly cloudy 10 - - - -
29/06:30pm 15.0 N 13 18 1009.5 - 12.6 - Partly cloudy 10 - - - -
29/06:00pm 15.3 NNW 13 18 1009.4 - 12.4 - Cloudy 10 - - - -
29/05:30pm 15.0 NNW 15 22 1009.1 - 12.4 - Partly cloudy 10 - - - -
29/05:00pm 15.5 NNW 15 23 1008.9 - 12.4 - Partly cloudy 10 - - - -
29/04:51pm 15.4 NNW 16 21 1008.9 - 12.4 - Partly cloudy 10 - - - -
29/04:33pm 15.5 NNW 13 19 1008.8 - 12.2 - Partly cloudy 5 - - - -
29/04:30pm 15.6 NNW 13 19 1008.7 - 12.0 - Partly cloudy 8 - - - -
29/04:09pm 15.7 NNW 13 19 1008.7 - 11.4 - Partly cloudy 6 - - - -
29/04:00pm 15.7 NNW 10 13 1008.6 - 11.2 - Partly cloudy 6 - - - -
29/03:53pm 15.7 NNW 12 17 1008.6 - 11.2 - Partly cloudy 5 - - - -
29/03:43pm 15.6 N 11 19 1008.6 - 10.8 - Partly cloudy 8 - - - -
29/03:30pm 15.6 N 12 18 1008.5 - 10.6 - Partly cloudy 3 - - - -
29/03:11pm 15.6 NNW 9 11 1008.5 - 7.0 - Partly cloudy 5 - - - -
29/03:02pm 15.7 NNW 10 14 1008.2 - 6.4 - Partly cloudy 8 - - - -
29/03:00pm 15.7 N 10 14 1008.2 - 6.0 Rain Cloudy 7 - - - -
29/02:37pm 15.8 N 8 12 1008.2 - 4.4 - Partly cloudy 5 - - - -
29/02:30pm 15.9 N 8 13 1008.1 - 3.4 - Partly cloudy 10 - - - -
29/02:00pm 15.9 N 10 14 1008.2 - 2.6 - Partly cloudy 6 - - - -
29/01:30pm 16.1 N 11 16 1008.1 - 1.4 - Partly cloudy 8 - - - -
29/01:00pm 16.6 N 11 18 1008.5 - 0.6 - Partly cloudy 10 - - - -
29/12:30pm 17.0 N 9 14 1008.9 - 0.6 - Partly cloudy 10 - - - -
29/12:00pm 17.0 N 11 15 1009.4 - 0.6 Rain Cloudy 10 - - - -
29/11:30am 17.1 N 11 17 1009.9 - 0.4 - Partly cloudy 10 - - - -
29/11:00am 17.0 NNE 11 17 1010.0 - 0.4 - Partly cloudy 10 - - - -
29/10:30am 16.6 N 10 17 1010.6 - 0.2 - Partly cloudy 10 - - - -
29/10:00am 16.5 NNE 10 17 1011.2 - 0.0 - Partly cloudy 10 - - - -
29/09:30am 16.1 NNE 10 16 1011.5 - 0.0 - Cloudy 10 - - - -
29/09:00am 15.8 NNE 10 15 1012.0 - 6.0 Recent precip. Cloudy 10 - - - -
29/08:30am 15.8 N 10 16 1012.3 - 6.0 - Partly cloudy 10 - - - -
29/08:00am 16.0 NNE 11 18 1011.8 - 5.4 - Partly cloudy 10 - - - -
29/07:30am 15.7 N 12 20 1011.6 - 5.4 - Partly cloudy 10 - - - -
29/07:00am 15.2 NNE 11 17 1011.6 - 5.4 - Partly cloudy 10 - - - -
29/06:30am 15.0 NNE 10 16 1012.1 - 5.4 - Partly cloudy 10 - - - -
29/06:00am 15.1 NNE 9 14 1013.0 - 4.2 Recent precip. Cloudy 9 - - - -
29/05:30am 15.1 N 10 16 1013.1 - 3.6 - Partly cloudy 9 - - - -
29/05:00am 14.7 NNE 9 15 1013.0 - 3.4 - Partly cloudy 10 - - - -
29/04:30am 13.0 N 6 8 1013.1 - 2.8 - Partly cloudy 6 - - - -
29/04:00am 11.6 E 4 6 1013.3 - 2.4 - Partly cloudy 7 - - - -
29/03:30am 11.6 S 3 5 1013.8 - 2.0 - Cloudy 8 - - - -
29/03:07am 11.0 ESE 4 5 1014.3 - 1.4 - Partly cloudy 10 - - - -
29/03:00am 11.1 ENE 5 6 1014.2 - 1.2 Rain Cloudy 8 - - - -
29/02:50am 11.3 ENE 4 5 1014.5 - 1.0 - Partly cloudy 5 - - - -
29/02:30am 11.0 SW 4 6 1014.7 - 0.2 - Partly cloudy 10 - - - -
29/02:00am 10.2 ESE 4 5 1014.7 - 0.0 - Partly cloudy 10 - - - -
29/01:30am 9.2 E 3 5 1015.1 - 0.0 - Partly cloudy 10 - - - -
29/01:00am 10.0 ENE 1 4 1015.5 - 0.0 - Partly cloudy 10 - - - -
29/12:30am 10.0 NNE 5 6 1015.8 - 0.0 - Partly cloudy 10 - - - -
29/12:00am 8.1 NE 1 3 1015.9 - 0.0 - Mostly clear 10 - - - -
 
Date/Time
EST
Temp

°C
Wind Pressure Rain
since 9am
mm
Weather Cloud Vis
km
Sea
Height
m
Swell
Dir
 
Speed
knots
Gust
knots
hPa Trend Height
m
Period
s
Dir
28/11:30pm 8.9 CALM 0 0 1016.1 - 0.0 - - 10 - - - -
28/11:00pm 8.6 NNE 3 4 1016.4 - 0.0 - - 10 - - - -
28/10:30pm 9.1 NNE 2 4 1016.8 - 0.0 - Partly cloudy 10 - - - -
28/10:00pm 9.5 ENE 4 5 1017.0 - 0.0 - Partly cloudy 10 - - - -
28/09:30pm 9.0 ENE 5 5 1017.1 - 0.0 - Partly cloudy 10 - - - -
28/09:00pm 9.8 NE 3 5 1017.3 - 0.0 - Mostly clear 10 - - - -
28/08:30pm 10.0 NNE 4 5 1017.4 - 0.0 - - 10 - - - -
28/08:00pm 9.8 CALM 0 2 1017.3 - 0.0 - - 10 - - - -
28/07:30pm 9.9 NE 2 3 1017.3 - 0.0 - - 10 - - - -
28/07:00pm 10.2 N 3 4 1017.3 - 0.0 - - 10 - - - -
28/06:30pm 11.3 NNE 3 5 1017.0 - 0.0 - - 10 - - - -
28/06:00pm 12.1 W 1 5 1016.6 - 0.0 - - 6 - - - -
28/05:30pm 13.2 WSW 2 5 1016.4 - 0.0 - - 10 - - - -
28/05:00pm 16.1 CALM 0 0 1016.4 - 0.0 - - 10 - - - -
28/04:30pm 17.0 NW 3 4 1016.5 - 0.0 - - 10 - - - -
28/04:00pm 17.4 NW 5 7 1016.6 - 0.0 - - 10 - - - -
28/03:30pm 17.9 NW 6 8 1016.5 - 0.0 - - 10 - - - -
28/03:00pm 18.0 NW 6 8 1016.3 - 0.0 - - 10 - - - -
28/02:30pm 18.1 NW 7 8 1016.1 - 0.0 - - 10 - - - -
28/02:00pm 18.3 NNW 7 9 1016.0 - 0.0 - - 10 - - - -
28/01:30pm 17.9 NW 7 9 1016.1 - 0.0 - - 10 - - - -
28/01:00pm 17.7 NW 8 10 1016.3 - 0.0 - - 10 - - - -
28/12:30pm 17.9 NW 8 9 1016.4 - 0.0 - - 10 - - - -
28/12:00pm 16.5 NW 6 9 1016.5 - 0.0 - Cloudy 9 - - - -
28/11:30am 16.8 NNW 6 7 1016.5 - 0.0 - Partly cloudy 10 - - - -
28/11:26am 16.8 NW 6 7 1016.5 - 0.0 - Partly cloudy 10 - - - -
28/11:13am 16.8 NW 5 6 1016.3 - 0.0 - Partly cloudy 10 - - - -
28/11:00am 16.2 NNW 4 6 1016.3 - 0.0 - Partly cloudy 10 - - - -
28/10:42am 15.5 NNW 5 6 1016.4 - 0.0 - Partly cloudy 8 - - - -
28/10:31am 16.2 NNW 5 7 1016.3 - 0.0 - Partly cloudy 5 - - - -
28/10:30am 15.9 NNW 5 7 1016.3 - 0.0 - Partly cloudy 6 - - - -
28/10:00am 15.0 NW 5 7 1016.3 - 0.0 - Partly cloudy 8 - - - -
28/09:32am 14.7 NNW 4 5 1016.0 - 0.0 - Partly cloudy 8 - - - -
28/09:30am 14.7 NNW 4 5 1016.0 - 0.0 - Partly cloudy 8 - - - -
28/09:00am 13.7 NNW 5 6 1016.0 - 12.8 Recent precip. Cloudy 10 - - - -
28/08:44am 13.5 NNW 4 6 1015.9 - 12.8 - Partly cloudy 10 - - - -
28/08:30am 13.4 NNW 6 7 1015.8 - 12.6 - Partly cloudy 3 - - - -
28/08:28am 13.5 NNW 5 7 1015.8 - 12.6 - Partly cloudy 2 - - - -
28/08:00am 13.8 NNW 3 6 1015.3 - 9.6 - Partly cloudy 3 - - - -
28/07:30am 13.8 W 3 4 1014.7 - 8.4 - Partly cloudy 5 - - - -
28/07:11am 13.7 W 8 11 1014.5 - 7.2 - Partly cloudy 3 - - - -
28/07:04am 13.9 W 7 9 1014.4 - 5.6 - Partly cloudy 4 - - - -
28/07:00am 14.0 W 6 9 1014.2 - 5.4 - Partly cloudy 4 - - - -
28/06:30am 14.2 W 7 11 1013.9 - 1.8 - Partly cloudy 5 - - - -
28/06:28am 14.2 W 7 11 1014.1 - 1.6 - Cloudy 5 - - - -
28/06:00am 14.3 WNW 5 6 1013.7 - 1.4 Recent precip. Mostly cloudy 7 - - - -
28/05:53am 14.3 WNW 5 6 1013.8 - 1.4 - Cloudy 8 - - - -
28/05:30am 14.4 NW 5 7 1013.5 - 1.0 - Cloudy 5 - - - -
28/05:26am 14.3 WNW 5 7 1013.6 - 0.8 - Cloudy 5 - - - -
28/05:00am 14.5 WNW 5 6 1013.3 - 0.6 - Cloudy 7 - - - -
28/04:43am 14.6 W 5 7 1013.2 - 0.6 - Partly cloudy 7 - - - -
28/04:30am 14.7 W 7 9 1013.0 - 0.6 - Partly cloudy 5 - - - -
28/04:15am 15.2 WSW 7 11 1012.9 - 0.2 - Partly cloudy 5 - - - -
28/04:11am 15.4 W 8 11 1013.0 - 0.0 - Partly cloudy 5 - - - -
28/04:00am 16.3 NNW 10 13 1012.7 - 0.0 - Partly cloudy 6 - - - -
28/03:30am 16.6 NNW 10 13 1012.5 - 0.0 - Partly cloudy 8 - - - -
28/03:00am 16.8 NNW 11 16 1012.7 - 0.0 - Cloudy 8 - - - -
28/02:30am 17.4 NNW 12 16 1012.5 - 0.0 - Partly cloudy 10 - - - -
28/02:29am 17.4 NNW 12 16 1012.5 - 0.0 - Partly cloudy 10 - - - -
28/02:00am 16.5 NNW 7 8 1012.5 - 0.0 - Partly cloudy 3 - - - -
28/01:44am 16.3 NW 7 8 1012.6 - 0.0 - Partly cloudy 5 - - - -
28/01:30am 16.3 NNW 6 7 1012.3 - 0.0 - Partly cloudy 10 - - - -
28/01:00am 16.3 NNW 5 6 1012.1 - 0.0 - Cloudy 10 - - - -
28/12:30am 16.8 N 9 11 1011.9 - 0.0 - Cloudy 7 - - - -
28/12:00am 16.9 NNW 11 15 1012.4 - 0.0 - Cloudy 7 - - - -
 
Date/Time
EST
Temp

°C
Wind Pressure Rain
since 9am
mm
Weather Cloud Vis
km
Sea
Height
m
Swell
Dir
 
Speed
knots
Gust
knots
hPa Trend Height
m
Period
s
Dir
27/11:30pm 17.3 NNW 12 18 1012.9 - 0.0 - Cloudy 8 - - - -
27/11:00pm 17.6 NW 14 19 1013.0 - 0.0 - Partly cloudy 9 - - - -
27/10:30pm 18.2 NNW 15 20 1012.6 - 0.0 - Cloudy 10 - - - -
27/10:00pm 18.6 NW 14 19 1012.8 - 0.0 - Cloudy 10 - - - -
27/09:30pm 18.7 NW 13 17 1012.6 - 0.0 - Partly cloudy 10 - - - -
27/09:00pm 18.6 NW 12 17 1012.6 - 0.0 - Cloudy 10 - - - -
27/08:30pm 19.8 NNW 10 16 1011.9 - 0.0 - Cloudy 10 - - - -
27/08:00pm 20.4 NNW 14 18 1011.8 - 0.0 - Cloudy 10 - - - -
27/07:30pm 20.0 N 12 17 1011.8 - 0.0 - Cloudy 10 - - - -
27/07:00pm 20.6 N 13 20 1011.5 - 0.0 - Partly cloudy 10 - - - -
27/06:30pm 20.3 N 12 16 1011.3 - 0.0 - Partly cloudy 10 - - - -
27/06:00pm 21.0 N 13 19 1011.0 - 0.0 - Cloudy 10 - - - -
27/05:30pm 21.7 NNW 21 32 1010.5 - 0.0 - Partly cloudy 10 - - - -
27/05:17pm 21.7 NNW 19 29 1010.4 - 0.0 - - 10 - - - -
27/05:00pm 21.3 NNW 19 24 1010.5 - 0.0 - - 10 - - - -
27/04:32pm 21.8 NNW 19 34 1010.5 - 0.0 - - 10 - - - -
27/04:30pm 21.7 NNW 19 27 1010.5 - 0.0 - - 10 - - - -
27/04:00pm 22.5 NNW 23 32 1010.3 - 0.0 - - 10 - - - -
27/03:30pm 23.0 NNW 23 33 1010.3 - 0.0 - - 10 - - - -
27/03:18pm 23.2 NNW 22 32 1010.2 - 0.0 - - 10 - - - -
27/03:00pm 24.1 NNW 22 30 1010.0 - 0.0 - - 10 - - - -
27/02:30pm 25.1 NNW 23 34 1009.9 - 0.0 - - 10 - - - -
27/02:00pm 24.8 NNW 25 38 1009.9 - 0.0 - - 10 - - - -
27/01:30pm 25.0 NNW 22 39 1010.1 - 0.0 - - 10 - - - -
27/01:00pm 25.0 N 24 39 1010.3 - 0.0 - - 10 - - - -
27/12:30pm 24.8 N 24 34 1010.8 - 0.0 - - 10 - - - -
27/12:00pm 24.2 N 21 32 1011.3 - 0.0 - - 10 - - - -
27/11:30am 23.4 N 17 31 1011.8 - 0.0 - - 10 - - - -
27/11:15am 23.4 N 17 27 1012.0 - 0.0 - - 10 - - - -
27/11:00am 23.6 N 17 25 1012.1 - 0.0 - - 10 - - - -
27/10:32am 22.9 N 15 26 1012.7 - 0.0 - - 10 - - - -
27/10:30am 22.8 N 15 23 1012.8 - 0.0 - - 10 - - - -
27/10:05am 22.4 N 16 29 1013.3 - 0.0 - - 10 - - - -
27/10:00am 22.4 N 15 24 1013.3 - 0.0 - - 10 - - - -

Other Formats:

Comma delimited format used in spreadsheet applications
http://www.bom.gov.au/fwo/IDT60701/IDT60701.94956.axf

JavaScript Object Notation format (JSON) in row-major order
http://www.bom.gov.au/fwo/IDT60701/IDT60701.94956.json